sensor_id;sensor_type;location;lat;lon;timestamp;P1;durP1;ratioP1;P2;durP2;ratioP2
71207;SDS011;58938;49.868;8.646;2023-05-23T00:02:04;69.78;;;35.53;;
71207;SDS011;58938;49.868;8.646;2023-05-23T00:04:32;74.15;;;37.33;;
71207;SDS011;58938;49.868;8.646;2023-05-23T00:06:59;66.73;;;34.20;;
71207;SDS011;58938;49.868;8.646;2023-05-23T00:09:25;67.18;;;34.88;;
71207;SDS011;58938;49.868;8.646;2023-05-23T00:11:51;72.55;;;35.58;;
71207;SDS011;58938;49.868;8.646;2023-05-23T00:14:17;65.38;;;34.35;;
71207;SDS011;58938;49.868;8.646;2023-05-23T00:16:44;66.00;;;34.20;;
71207;SDS011;58938;49.868;8.646;2023-05-23T00:19:13;68.27;;;35.97;;
71207;SDS011;58938;49.868;8.646;2023-05-23T00:21:40;64.65;;;34.17;;
71207;SDS011;58938;49.868;8.646;2023-05-23T00:24:07;61.20;;;33.65;;
71207;SDS011;58938;49.868;8.646;2023-05-23T00:26:34;65.20;;;33.88;;
71207;SDS011;58938;49.868;8.646;2023-05-23T00:29:01;72.03;;;34.13;;
71207;SDS011;58938;49.868;8.646;2023-05-23T00:31:27;66.53;;;33.40;;
71207;SDS011;58938;49.868;8.646;2023-05-23T00:33:53;62.42;;;32.53;;
71207;SDS011;58938;49.868;8.646;2023-05-23T00:36:20;63.85;;;33.95;;
71207;SDS011;58938;49.868;8.646;2023-05-23T00:38:46;58.90;;;31.58;;
71207;SDS011;58938;49.868;8.646;2023-05-23T00:41:13;61.20;;;30.90;;
71207;SDS011;58938;49.868;8.646;2023-05-23T00:43:39;53.57;;;30.13;;
71207;SDS011;58938;49.868;8.646;2023-05-23T00:46:05;56.95;;;30.95;;
71207;SDS011;58938;49.868;8.646;2023-05-23T00:48:32;56.55;;;31.60;;
71207;SDS011;58938;49.868;8.646;2023-05-23T00:50:58;59.45;;;30.83;;
71207;SDS011;58938;49.868;8.646;2023-05-23T00:53:24;54.03;;;29.67;;
71207;SDS011;58938;49.868;8.646;2023-05-23T00:55:50;59.20;;;31.93;;
71207;SDS011;58938;49.868;8.646;2023-05-23T00:58:16;58.13;;;31.48;;
71207;SDS011;58938;49.868;8.646;2023-05-23T01:00:42;62.10;;;33.65;;
71207;SDS011;58938;49.868;8.646;2023-05-23T01:03:09;60.33;;;32.35;;
71207;SDS011;58938;49.868;8.646;2023-05-23T01:05:41;65.00;;;32.07;;
71207;SDS011;58938;49.868;8.646;2023-05-23T01:08:08;58.33;;;31.92;;
71207;SDS011;58938;49.868;8.646;2023-05-23T01:10:34;58.65;;;31.38;;
71207;SDS011;58938;49.868;8.646;2023-05-23T01:15:35;62.53;;;33.03;;
71207;SDS011;58938;49.868;8.646;2023-05-23T01:18:06;54.95;;;29.75;;
71207;SDS011;58938;49.868;8.646;2023-05-23T01:20:34;58.35;;;31.30;;
71207;SDS011;58938;49.868;8.646;2023-05-23T01:23:09;59.13;;;31.38;;
71207;SDS011;58938;49.868;8.646;2023-05-23T01:28:23;52.97;;;29.00;;
71207;SDS011;58938;49.868;8.646;2023-05-23T01:30:56;50.40;;;29.08;;
71207;SDS011;58938;49.868;8.646;2023-05-23T01:33:22;52.17;;;29.42;;
71207;SDS011;58938;49.868;8.646;2023-05-23T01:35:50;51.40;;;28.23;;
71207;SDS011;58938;49.868;8.646;2023-05-23T01:38:16;54.55;;;28.80;;
71207;SDS011;58938;49.868;8.646;2023-05-23T01:40:42;47.13;;;26.60;;
71207;SDS011;58938;49.868;8.646;2023-05-23T01:43:08;45.88;;;27.42;;
71207;SDS011;58938;49.868;8.646;2023-05-23T01:45:34;47.58;;;27.40;;
71207;SDS011;58938;49.868;8.646;2023-05-23T01:48:00;48.38;;;27.60;;
71207;SDS011;58938;49.868;8.646;2023-05-23T01:50:27;44.85;;;26.92;;
71207;SDS011;58938;49.868;8.646;2023-05-23T01:52:53;48.53;;;27.33;;
71207;SDS011;58938;49.868;8.646;2023-05-23T01:55:20;46.53;;;25.77;;
71207;SDS011;58938;49.868;8.646;2023-05-23T01:57:51;46.53;;;27.08;;
71207;SDS011;58938;49.868;8.646;2023-05-23T02:00:21;45.40;;;26.45;;
71207;SDS011;58938;49.868;8.646;2023-05-23T02:02:47;41.53;;;23.98;;
71207;SDS011;58938;49.868;8.646;2023-05-23T02:05:13;43.93;;;25.80;;
71207;SDS011;58938;49.868;8.646;2023-05-23T02:07:39;43.05;;;25.98;;
71207;SDS011;58938;49.868;8.646;2023-05-23T02:10:06;43.00;;;24.50;;
71207;SDS011;58938;49.868;8.646;2023-05-23T02:12:33;43.03;;;24.75;;
71207;SDS011;58938;49.868;8.646;2023-05-23T02:15:00;40.58;;;23.85;;
71207;SDS011;58938;49.868;8.646;2023-05-23T02:17:26;38.97;;;23.63;;
71207;SDS011;58938;49.868;8.646;2023-05-23T02:19:53;42.08;;;25.50;;
71207;SDS011;58938;49.868;8.646;2023-05-23T02:22:22;45.63;;;23.98;;
71207;SDS011;58938;49.868;8.646;2023-05-23T02:24:51;43.58;;;25.13;;
71207;SDS011;58938;49.868;8.646;2023-05-23T02:27:17;41.10;;;23.90;;
71207;SDS011;58938;49.868;8.646;2023-05-23T02:29:43;42.28;;;24.75;;
71207;SDS011;58938;49.868;8.646;2023-05-23T02:32:10;40.17;;;24.65;;
71207;SDS011;58938;49.868;8.646;2023-05-23T02:34:36;41.55;;;25.10;;
71207;SDS011;58938;49.868;8.646;2023-05-23T02:37:02;41.55;;;23.98;;
71207;SDS011;58938;49.868;8.646;2023-05-23T02:39:28;39.07;;;22.83;;
71207;SDS011;58938;49.868;8.646;2023-05-23T02:41:54;35.47;;;22.08;;
71207;SDS011;58938;49.868;8.646;2023-05-23T02:44:20;36.38;;;22.00;;
71207;SDS011;58938;49.868;8.646;2023-05-23T02:46:46;38.58;;;22.83;;
71207;SDS011;58938;49.868;8.646;2023-05-23T02:49:12;36.60;;;20.73;;
71207;SDS011;58938;49.868;8.646;2023-05-23T02:51:38;32.00;;;20.53;;
71207;SDS011;58938;49.868;8.646;2023-05-23T02:54:04;28.17;;;19.15;;
71207;SDS011;58938;49.868;8.646;2023-05-23T02:56:30;31.75;;;20.73;;
71207;SDS011;58938;49.868;8.646;2023-05-23T02:58:56;29.63;;;20.25;;
71207;SDS011;58938;49.868;8.646;2023-05-23T03:01:22;27.67;;;18.00;;
71207;SDS011;58938;49.868;8.646;2023-05-23T03:03:48;32.03;;;20.38;;
71207;SDS011;58938;49.868;8.646;2023-05-23T03:06:14;27.58;;;18.05;;
71207;SDS011;58938;49.868;8.646;2023-05-23T03:08:41;30.20;;;19.20;;
71207;SDS011;58938;49.868;8.646;2023-05-23T03:11:06;28.43;;;17.97;;
71207;SDS011;58938;49.868;8.646;2023-05-23T03:13:33;28.27;;;17.53;;
71207;SDS011;58938;49.868;8.646;2023-05-23T03:15:59;29.30;;;18.30;;
71207;SDS011;58938;49.868;8.646;2023-05-23T03:18:25;28.17;;;18.13;;
71207;SDS011;58938;49.868;8.646;2023-05-23T03:20:51;27.70;;;16.35;;
71207;SDS011;58938;49.868;8.646;2023-05-23T03:23:17;27.83;;;17.57;;
71207;SDS011;58938;49.868;8.646;2023-05-23T03:25:43;30.58;;;18.55;;
71207;SDS011;58938;49.868;8.646;2023-05-23T03:28:09;27.80;;;18.02;;
71207;SDS011;58938;49.868;8.646;2023-05-23T03:30:36;29.27;;;17.55;;
71207;SDS011;58938;49.868;8.646;2023-05-23T03:33:03;28.63;;;18.33;;
71207;SDS011;58938;49.868;8.646;2023-05-23T03:35:30;28.87;;;17.67;;
71207;SDS011;58938;49.868;8.646;2023-05-23T03:37:56;29.05;;;18.05;;
71207;SDS011;58938;49.868;8.646;2023-05-23T03:40:22;28.65;;;18.30;;
71207;SDS011;58938;49.868;8.646;2023-05-23T03:42:51;29.67;;;17.30;;
71207;SDS011;58938;49.868;8.646;2023-05-23T03:45:26;28.65;;;18.15;;
71207;SDS011;58938;49.868;8.646;2023-05-23T03:47:52;26.27;;;16.17;;
71207;SDS011;58938;49.868;8.646;2023-05-23T03:50:18;26.85;;;16.50;;
71207;SDS011;58938;49.868;8.646;2023-05-23T03:52:44;24.80;;;15.00;;
71207;SDS011;58938;49.868;8.646;2023-05-23T03:55:10;25.38;;;16.08;;
71207;SDS011;58938;49.868;8.646;2023-05-23T03:57:36;28.67;;;15.70;;
71207;SDS011;58938;49.868;8.646;2023-05-23T04:00:02;24.95;;;16.40;;
71207;SDS011;58938;49.868;8.646;2023-05-23T04:02:46;24.27;;;14.73;;
71207;SDS011;58938;49.868;8.646;2023-05-23T04:05:13;23.60;;;13.18;;
71207;SDS011;58938;49.868;8.646;2023-05-23T04:07:40;23.75;;;14.95;;
71207;SDS011;58938;49.868;8.646;2023-05-23T04:10:06;25.33;;;13.20;;
71207;SDS011;58938;49.868;8.646;2023-05-23T04:12:33;20.40;;;12.77;;
71207;SDS011;58938;49.868;8.646;2023-05-23T04:14:59;20.42;;;12.95;;
71207;SDS011;58938;49.868;8.646;2023-05-23T04:17:25;21.50;;;13.73;;
71207;SDS011;58938;49.868;8.646;2023-05-23T04:19:53;25.42;;;13.90;;
71207;SDS011;58938;49.868;8.646;2023-05-23T04:22:19;32.37;;;17.73;;
71207;SDS011;58938;49.868;8.646;2023-05-23T04:24:45;27.95;;;16.00;;
71207;SDS011;58938;49.868;8.646;2023-05-23T04:27:11;30.52;;;18.35;;
71207;SDS011;58938;49.868;8.646;2023-05-23T04:29:37;33.60;;;21.48;;
71207;SDS011;58938;49.868;8.646;2023-05-23T04:32:04;27.80;;;17.00;;
71207;SDS011;58938;49.868;8.646;2023-05-23T04:34:33;28.55;;;16.90;;
71207;SDS011;58938;49.868;8.646;2023-05-23T04:36:59;29.90;;;16.70;;
71207;SDS011;58938;49.868;8.646;2023-05-23T04:39:26;28.00;;;16.70;;
71207;SDS011;58938;49.868;8.646;2023-05-23T04:41:53;28.85;;;17.45;;
71207;SDS011;58938;49.868;8.646;2023-05-23T04:44:20;27.70;;;16.10;;
71207;SDS011;58938;49.868;8.646;2023-05-23T04:46:46;29.17;;;16.77;;
71207;SDS011;58938;49.868;8.646;2023-05-23T04:49:14;29.00;;;19.08;;
71207;SDS011;58938;49.868;8.646;2023-05-23T04:51:40;28.08;;;16.50;;
71207;SDS011;58938;49.868;8.646;2023-05-23T04:54:06;30.05;;;19.45;;
71207;SDS011;58938;49.868;8.646;2023-05-23T04:56:32;29.63;;;20.30;;
71207;SDS011;58938;49.868;8.646;2023-05-23T04:58:58;31.50;;;17.77;;
71207;SDS011;58938;49.868;8.646;2023-05-23T05:01:24;28.00;;;18.30;;
71207;SDS011;58938;49.868;8.646;2023-05-23T05:03:51;28.38;;;19.35;;
71207;SDS011;58938;49.868;8.646;2023-05-23T05:06:17;28.80;;;18.33;;
71207;SDS011;58938;49.868;8.646;2023-05-23T05:08:45;29.45;;;18.27;;
71207;SDS011;58938;49.868;8.646;2023-05-23T05:11:11;27.58;;;17.73;;
71207;SDS011;58938;49.868;8.646;2023-05-23T05:13:37;27.80;;;18.63;;
71207;SDS011;58938;49.868;8.646;2023-05-23T05:16:02;29.35;;;16.10;;
71207;SDS011;58938;49.868;8.646;2023-05-23T05:18:29;30.10;;;17.65;;
71207;SDS011;58938;49.868;8.646;2023-05-23T05:20:55;25.73;;;17.38;;
71207;SDS011;58938;49.868;8.646;2023-05-23T05:23:24;24.20;;;15.32;;
71207;SDS011;58938;49.868;8.646;2023-05-23T05:25:50;23.27;;;13.97;;
71207;SDS011;58938;49.868;8.646;2023-05-23T05:28:16;25.13;;;15.98;;
71207;SDS011;58938;49.868;8.646;2023-05-23T05:30:42;23.52;;;14.63;;
71207;SDS011;58938;49.868;8.646;2023-05-23T05:33:10;23.98;;;14.50;;
71207;SDS011;58938;49.868;8.646;2023-05-23T05:35:36;25.63;;;14.33;;
71207;SDS011;58938;49.868;8.646;2023-05-23T05:38:05;20.83;;;14.50;;
71207;SDS011;58938;49.868;8.646;2023-05-23T05:40:32;21.92;;;13.32;;
71207;SDS011;58938;49.868;8.646;2023-05-23T05:42:58;23.25;;;13.75;;
71207;SDS011;58938;49.868;8.646;2023-05-23T05:45:25;23.50;;;14.93;;
71207;SDS011;58938;49.868;8.646;2023-05-23T05:47:51;20.93;;;13.90;;
71207;SDS011;58938;49.868;8.646;2023-05-23T05:50:16;23.98;;;13.85;;
71207;SDS011;58938;49.868;8.646;2023-05-23T05:52:44;26.05;;;16.38;;
71207;SDS011;58938;49.868;8.646;2023-05-23T05:55:11;25.08;;;15.57;;
71207;SDS011;58938;49.868;8.646;2023-05-23T05:57:37;25.50;;;15.10;;
71207;SDS011;58938;49.868;8.646;2023-05-23T06:00:05;26.48;;;16.02;;
71207;SDS011;58938;49.868;8.646;2023-05-23T06:02:36;24.67;;;15.60;;
71207;SDS011;58938;49.868;8.646;2023-05-23T06:05:02;25.95;;;16.00;;
71207;SDS011;58938;49.868;8.646;2023-05-23T06:07:30;21.92;;;15.25;;
71207;SDS011;58938;49.868;8.646;2023-05-23T06:09:56;21.80;;;11.53;;
71207;SDS011;58938;49.868;8.646;2023-05-23T06:12:22;19.13;;;12.43;;
71207;SDS011;58938;49.868;8.646;2023-05-23T06:15:00;24.02;;;14.32;;
71207;SDS011;58938;49.868;8.646;2023-05-23T06:17:26;23.40;;;16.15;;
71207;SDS011;58938;49.868;8.646;2023-05-23T06:19:57;23.08;;;15.27;;
71207;SDS011;58938;49.868;8.646;2023-05-23T06:22:23;22.30;;;14.37;;
71207;SDS011;58938;49.868;8.646;2023-05-23T06:24:49;24.52;;;13.68;;
71207;SDS011;58938;49.868;8.646;2023-05-23T06:27:15;25.58;;;13.88;;
71207;SDS011;58938;49.868;8.646;2023-05-23T06:29:41;19.35;;;12.05;;
71207;SDS011;58938;49.868;8.646;2023-05-23T06:32:07;19.43;;;10.57;;
71207;SDS011;58938;49.868;8.646;2023-05-23T06:34:33;18.27;;;10.32;;
71207;SDS011;58938;49.868;8.646;2023-05-23T06:37:02;14.63;;;8.90;;
71207;SDS011;58938;49.868;8.646;2023-05-23T06:39:28;13.25;;;8.80;;
71207;SDS011;58938;49.868;8.646;2023-05-23T06:41:55;14.68;;;9.80;;
71207;SDS011;58938;49.868;8.646;2023-05-23T06:44:21;13.40;;;7.07;;
71207;SDS011;58938;49.868;8.646;2023-05-23T06:46:48;14.25;;;9.25;;
71207;SDS011;58938;49.868;8.646;2023-05-23T06:49:14;15.70;;;9.00;;
71207;SDS011;58938;49.868;8.646;2023-05-23T06:51:40;14.25;;;8.80;;
71207;SDS011;58938;49.868;8.646;2023-05-23T06:54:06;14.10;;;9.07;;
71207;SDS011;58938;49.868;8.646;2023-05-23T06:56:32;12.07;;;8.30;;
71207;SDS011;58938;49.868;8.646;2023-05-23T06:58:58;14.13;;;9.13;;
71207;SDS011;58938;49.868;8.646;2023-05-23T07:01:25;13.07;;;8.43;;
71207;SDS011;58938;49.868;8.646;2023-05-23T07:03:51;12.38;;;7.70;;
71207;SDS011;58938;49.868;8.646;2023-05-23T07:06:17;13.07;;;7.37;;
71207;SDS011;58938;49.868;8.646;2023-05-23T07:08:43;13.48;;;6.95;;
71207;SDS011;58938;49.868;8.646;2023-05-23T07:11:10;9.88;;;6.30;;
71207;SDS011;58938;49.868;8.646;2023-05-23T07:13:36;11.80;;;6.97;;
71207;SDS011;58938;49.868;8.646;2023-05-23T07:16:02;10.10;;;6.67;;
71207;SDS011;58938;49.868;8.646;2023-05-23T07:18:28;9.87;;;5.87;;
71207;SDS011;58938;49.868;8.646;2023-05-23T07:20:54;9.70;;;6.18;;
71207;SDS011;58938;49.868;8.646;2023-05-23T07:23:21;10.60;;;6.88;;
71207;SDS011;58938;49.868;8.646;2023-05-23T07:25:50;10.13;;;6.20;;
71207;SDS011;58938;49.868;8.646;2023-05-23T07:28:16;9.07;;;5.97;;
71207;SDS011;58938;49.868;8.646;2023-05-23T07:30:42;12.73;;;7.32;;
71207;SDS011;58938;49.868;8.646;2023-05-23T07:33:08;12.57;;;7.30;;
71207;SDS011;58938;49.868;8.646;2023-05-23T07:35:34;11.68;;;7.32;;
71207;SDS011;58938;49.868;8.646;2023-05-23T07:38:00;15.05;;;7.10;;
71207;SDS011;58938;49.868;8.646;2023-05-23T07:40:26;12.07;;;7.40;;
71207;SDS011;58938;49.868;8.646;2023-05-23T07:42:52;12.70;;;8.57;;
71207;SDS011;58938;49.868;8.646;2023-05-23T07:45:19;11.73;;;7.68;;
71207;SDS011;58938;49.868;8.646;2023-05-23T07:47:46;12.75;;;8.43;;
71207;SDS011;58938;49.868;8.646;2023-05-23T07:50:13;12.47;;;8.40;;
71207;SDS011;58938;49.868;8.646;2023-05-23T07:52:39;15.25;;;8.60;;
71207;SDS011;58938;49.868;8.646;2023-05-23T07:55:05;12.45;;;8.55;;
71207;SDS011;58938;49.868;8.646;2023-05-23T07:57:32;11.80;;;7.40;;
71207;SDS011;58938;49.868;8.646;2023-05-23T07:59:58;12.60;;;7.93;;
71207;SDS011;58938;49.868;8.646;2023-05-23T08:02:24;11.48;;;7.40;;
71207;SDS011;58938;49.868;8.646;2023-05-23T08:04:50;12.35;;;8.88;;
71207;SDS011;58938;49.868;8.646;2023-05-23T08:07:17;11.85;;;7.78;;
71207;SDS011;58938;49.868;8.646;2023-05-23T08:09:43;12.02;;;8.20;;
71207;SDS011;58938;49.868;8.646;2023-05-23T08:12:09;10.37;;;6.57;;
71207;SDS011;58938;49.868;8.646;2023-05-23T08:14:35;11.40;;;7.40;;
71207;SDS011;58938;49.868;8.646;2023-05-23T08:17:01;10.20;;;6.82;;
71207;SDS011;58938;49.868;8.646;2023-05-23T08:19:27;11.85;;;8.18;;
71207;SDS011;58938;49.868;8.646;2023-05-23T08:21:53;11.35;;;8.27;;
71207;SDS011;58938;49.868;8.646;2023-05-23T08:24:20;10.90;;;7.23;;
71207;SDS011;58938;49.868;8.646;2023-05-23T08:26:46;10.50;;;7.93;;
71207;SDS011;58938;49.868;8.646;2023-05-23T08:29:12;10.93;;;7.93;;
71207;SDS011;58938;49.868;8.646;2023-05-23T08:31:38;11.82;;;7.82;;
71207;SDS011;58938;49.868;8.646;2023-05-23T08:34:05;9.80;;;7.03;;
71207;SDS011;58938;49.868;8.646;2023-05-23T08:36:32;9.50;;;6.40;;
71207;SDS011;58938;49.868;8.646;2023-05-23T08:39:01;12.50;;;6.88;;
71207;SDS011;58938;49.868;8.646;2023-05-23T08:41:28;9.73;;;7.30;;
71207;SDS011;58938;49.868;8.646;2023-05-23T08:43:55;9.10;;;5.75;;
71207;SDS011;58938;49.868;8.646;2023-05-23T08:46:24;9.20;;;6.83;;
71207;SDS011;58938;49.868;8.646;2023-05-23T08:48:51;8.82;;;6.13;;
71207;SDS011;58938;49.868;8.646;2023-05-23T08:51:19;10.82;;;6.65;;
71207;SDS011;58938;49.868;8.646;2023-05-23T08:53:46;9.07;;;6.00;;
71207;SDS011;58938;49.868;8.646;2023-05-23T08:56:12;12.57;;;5.93;;
71207;SDS011;58938;49.868;8.646;2023-05-23T08:58:40;7.10;;;4.83;;
71207;SDS011;58938;49.868;8.646;2023-05-23T09:01:06;9.60;;;5.97;;
71207;SDS011;58938;49.868;8.646;2023-05-23T09:03:34;7.03;;;3.85;;
71207;SDS011;58938;49.868;8.646;2023-05-23T09:06:05;10.40;;;5.78;;
71207;SDS011;58938;49.868;8.646;2023-05-23T09:08:32;8.95;;;5.45;;
71207;SDS011;58938;49.868;8.646;2023-05-23T09:10:58;9.87;;;6.13;;
71207;SDS011;58938;49.868;8.646;2023-05-23T09:13:27;8.60;;;6.22;;
71207;SDS011;58938;49.868;8.646;2023-05-23T09:18:40;11.95;;;6.43;;
71207;SDS011;58938;49.868;8.646;2023-05-23T09:21:07;13.23;;;6.75;;
71207;SDS011;58938;49.868;8.646;2023-05-23T09:23:33;8.83;;;5.87;;
71207;SDS011;58938;49.868;8.646;2023-05-23T09:26:00;7.47;;;5.07;;
71207;SDS011;58938;49.868;8.646;2023-05-23T09:28:26;10.00;;;5.63;;
71207;SDS011;58938;49.868;8.646;2023-05-23T09:30:59;11.23;;;5.57;;
71207;SDS011;58938;49.868;8.646;2023-05-23T09:36:11;9.95;;;5.72;;
71207;SDS011;58938;49.868;8.646;2023-05-23T09:38:37;9.00;;;6.05;;
71207;SDS011;58938;49.868;8.646;2023-05-23T09:41:04;10.70;;;5.57;;
71207;SDS011;58938;49.868;8.646;2023-05-23T09:43:30;9.73;;;6.00;;
71207;SDS011;58938;49.868;8.646;2023-05-23T09:46:06;8.13;;;5.47;;
71207;SDS011;58938;49.868;8.646;2023-05-23T09:48:33;9.20;;;5.00;;
71207;SDS011;58938;49.868;8.646;2023-05-23T09:51:02;7.80;;;5.78;;
71207;SDS011;58938;49.868;8.646;2023-05-23T09:53:28;7.25;;;4.78;;
71207;SDS011;58938;49.868;8.646;2023-05-23T09:55:54;7.97;;;5.63;;
71207;SDS011;58938;49.868;8.646;2023-05-23T09:58:23;6.70;;;4.53;;
71207;SDS011;58938;49.868;8.646;2023-05-23T10:00:52;7.72;;;4.85;;
71207;SDS011;58938;49.868;8.646;2023-05-23T10:03:36;7.60;;;5.78;;
71207;SDS011;58938;49.868;8.646;2023-05-23T10:06:07;8.40;;;5.60;;
71207;SDS011;58938;49.868;8.646;2023-05-23T10:08:36;8.15;;;5.47;;
71207;SDS011;58938;49.868;8.646;2023-05-23T10:13:54;9.23;;;5.28;;
71207;SDS011;58938;49.868;8.646;2023-05-23T10:16:22;8.98;;;5.75;;
71207;SDS011;58938;49.868;8.646;2023-05-23T10:18:52;9.05;;;6.25;;
71207;SDS011;58938;49.868;8.646;2023-05-23T10:21:24;9.32;;;6.15;;
71207;SDS011;58938;49.868;8.646;2023-05-23T10:23:52;10.17;;;6.40;;
71207;SDS011;58938;49.868;8.646;2023-05-23T10:26:18;11.07;;;5.82;;
71207;SDS011;58938;49.868;8.646;2023-05-23T10:28:44;7.63;;;5.35;;
71207;SDS011;58938;49.868;8.646;2023-05-23T10:31:11;7.95;;;5.40;;
71207;SDS011;58938;49.868;8.646;2023-05-23T10:33:40;9.67;;;6.00;;
71207;SDS011;58938;49.868;8.646;2023-05-23T10:36:08;8.63;;;5.30;;
71207;SDS011;58938;49.868;8.646;2023-05-23T10:38:40;7.60;;;5.22;;
71207;SDS011;58938;49.868;8.646;2023-05-23T10:41:08;9.13;;;5.53;;
71207;SDS011;58938;49.868;8.646;2023-05-23T10:46:07;8.03;;;5.73;;
71207;SDS011;58938;49.868;8.646;2023-05-23T10:48:33;8.35;;;4.20;;
71207;SDS011;58938;49.868;8.646;2023-05-23T10:51:02;8.27;;;4.88;;
71207;SDS011;58938;49.868;8.646;2023-05-23T10:53:29;10.50;;;4.95;;
71207;SDS011;58938;49.868;8.646;2023-05-23T10:55:55;7.75;;;4.97;;
71207;SDS011;58938;49.868;8.646;2023-05-23T10:58:22;9.17;;;5.10;;
71207;SDS011;58938;49.868;8.646;2023-05-23T11:01:21;7.28;;;4.70;;
71207;SDS011;58938;49.868;8.646;2023-05-23T11:09:00;9.13;;;4.95;;
71207;SDS011;58938;49.868;8.646;2023-05-23T11:11:50;7.97;;;5.10;;
71207;SDS011;58938;49.868;8.646;2023-05-23T11:14:13;9.70;;;5.65;;
71207;SDS011;58938;49.868;8.646;2023-05-23T11:16:40;7.88;;;5.22;;
71207;SDS011;58938;49.868;8.646;2023-05-23T11:21:55;9.32;;;5.28;;
71207;SDS011;58938;49.868;8.646;2023-05-23T11:24:22;9.43;;;5.80;;
71207;SDS011;58938;49.868;8.646;2023-05-23T11:26:57;8.48;;;5.65;;
71207;SDS011;58938;49.868;8.646;2023-05-23T11:29:28;8.63;;;5.45;;
71207;SDS011;58938;49.868;8.646;2023-05-23T11:31:55;8.32;;;5.47;;
71207;SDS011;58938;49.868;8.646;2023-05-23T11:34:24;9.05;;;6.10;;
71207;SDS011;58938;49.868;8.646;2023-05-23T11:36:53;11.30;;;5.60;;
71207;SDS011;58938;49.868;8.646;2023-05-23T11:39:20;8.52;;;5.65;;
71207;SDS011;58938;49.868;8.646;2023-05-23T11:41:57;10.80;;;6.25;;
71207;SDS011;58938;49.868;8.646;2023-05-23T11:44:24;10.52;;;7.20;;
71207;SDS011;58938;49.868;8.646;2023-05-23T11:47:02;9.23;;;6.53;;
71207;SDS011;58938;49.868;8.646;2023-05-23T11:49:30;9.77;;;7.27;;
71207;SDS011;58938;49.868;8.646;2023-05-23T11:51:57;9.25;;;5.82;;
71207;SDS011;58938;49.868;8.646;2023-05-23T11:54:24;12.85;;;7.80;;
71207;SDS011;58938;49.868;8.646;2023-05-23T11:56:51;12.02;;;7.57;;
71207;SDS011;58938;49.868;8.646;2023-05-23T11:59:17;10.13;;;6.90;;
71207;SDS011;58938;49.868;8.646;2023-05-23T12:01:43;10.93;;;6.70;;
71207;SDS011;58938;49.868;8.646;2023-05-23T12:04:09;10.23;;;5.75;;
71207;SDS011;58938;49.868;8.646;2023-05-23T12:06:37;11.13;;;6.70;;
71207;SDS011;58938;49.868;8.646;2023-05-23T12:09:04;9.38;;;6.25;;
71207;SDS011;58938;49.868;8.646;2023-05-23T12:11:31;9.10;;;6.07;;
71207;SDS011;58938;49.868;8.646;2023-05-23T12:13:57;9.70;;;5.43;;
71207;SDS011;58938;49.868;8.646;2023-05-23T12:16:26;8.73;;;5.68;;
71207;SDS011;58938;49.868;8.646;2023-05-23T12:18:52;8.18;;;5.35;;
71207;SDS011;58938;49.868;8.646;2023-05-23T12:21:18;6.88;;;4.75;;
71207;SDS011;58938;49.868;8.646;2023-05-23T12:23:45;8.55;;;5.82;;
71207;SDS011;58938;49.868;8.646;2023-05-23T12:26:11;9.33;;;4.93;;
71207;SDS011;58938;49.868;8.646;2023-05-23T12:28:37;8.05;;;4.97;;
71207;SDS011;58938;49.868;8.646;2023-05-23T12:31:11;11.25;;;6.82;;
71207;SDS011;58938;49.868;8.646;2023-05-23T12:33:41;9.40;;;5.85;;
71207;SDS011;58938;49.868;8.646;2023-05-23T12:36:08;9.75;;;5.20;;
71207;SDS011;58938;49.868;8.646;2023-05-23T12:38:35;10.30;;;4.90;;
71207;SDS011;58938;49.868;8.646;2023-05-23T12:41:09;8.43;;;4.50;;
71207;SDS011;58938;49.868;8.646;2023-05-23T12:43:37;9.98;;;4.70;;
71207;SDS011;58938;49.868;8.646;2023-05-23T12:46:03;11.32;;;5.00;;
71207;SDS011;58938;49.868;8.646;2023-05-23T12:48:30;7.95;;;4.45;;
71207;SDS011;58938;49.868;8.646;2023-05-23T12:50:57;8.27;;;5.53;;
71207;SDS011;58938;49.868;8.646;2023-05-23T12:53:24;7.85;;;4.32;;
71207;SDS011;58938;49.868;8.646;2023-05-23T12:55:50;8.32;;;4.97;;
71207;SDS011;58938;49.868;8.646;2023-05-23T12:58:16;6.20;;;3.88;;
71207;SDS011;58938;49.868;8.646;2023-05-23T13:00:42;7.47;;;4.53;;
71207;SDS011;58938;49.868;8.646;2023-05-23T13:03:08;8.02;;;4.70;;
71207;SDS011;58938;49.868;8.646;2023-05-23T13:05:34;7.38;;;5.63;;
71207;SDS011;58938;49.868;8.646;2023-05-23T13:08:00;8.85;;;5.50;;
71207;SDS011;58938;49.868;8.646;2023-05-23T13:10:27;7.07;;;4.45;;
71207;SDS011;58938;49.868;8.646;2023-05-23T13:12:53;8.40;;;4.40;;
71207;SDS011;58938;49.868;8.646;2023-05-23T13:15:19;7.97;;;4.15;;
71207;SDS011;58938;49.868;8.646;2023-05-23T13:17:45;6.78;;;4.65;;
71207;SDS011;58938;49.868;8.646;2023-05-23T13:20:12;6.70;;;3.70;;
71207;SDS011;58938;49.868;8.646;2023-05-23T13:22:38;7.82;;;4.22;;
71207;SDS011;58938;49.868;8.646;2023-05-23T13:25:05;6.30;;;3.60;;
71207;SDS011;58938;49.868;8.646;2023-05-23T13:27:32;6.45;;;4.25;;
71207;SDS011;58938;49.868;8.646;2023-05-23T13:29:58;9.00;;;4.10;;
71207;SDS011;58938;49.868;8.646;2023-05-23T13:32:24;6.75;;;3.80;;
71207;SDS011;58938;49.868;8.646;2023-05-23T13:34:50;6.95;;;3.88;;
71207;SDS011;58938;49.868;8.646;2023-05-23T13:37:17;7.13;;;4.00;;
71207;SDS011;58938;49.868;8.646;2023-05-23T13:39:43;8.02;;;4.70;;
71207;SDS011;58938;49.868;8.646;2023-05-23T13:42:09;6.68;;;4.63;;
71207;SDS011;58938;49.868;8.646;2023-05-23T13:44:35;7.68;;;4.45;;
71207;SDS011;58938;49.868;8.646;2023-05-23T13:47:12;7.35;;;3.83;;
71207;SDS011;58938;49.868;8.646;2023-05-23T13:49:39;13.80;;;3.93;;
71207;SDS011;58938;49.868;8.646;2023-05-23T13:52:05;7.20;;;3.70;;
71207;SDS011;58938;49.868;8.646;2023-05-23T13:54:31;6.30;;;4.05;;
71207;SDS011;58938;49.868;8.646;2023-05-23T13:56:57;6.45;;;4.03;;
71207;SDS011;58938;49.868;8.646;2023-05-23T13:59:25;6.20;;;3.90;;
71207;SDS011;58938;49.868;8.646;2023-05-23T14:01:51;5.97;;;3.50;;
71207;SDS011;58938;49.868;8.646;2023-05-23T14:04:17;6.35;;;4.30;;
71207;SDS011;58938;49.868;8.646;2023-05-23T14:06:43;6.78;;;3.70;;
71207;SDS011;58938;49.868;8.646;2023-05-23T14:09:09;8.07;;;4.43;;
71207;SDS011;58938;49.868;8.646;2023-05-23T14:11:36;8.60;;;4.20;;
71207;SDS011;58938;49.868;8.646;2023-05-23T14:14:02;9.02;;;4.30;;
71207;SDS011;58938;49.868;8.646;2023-05-23T14:16:28;7.72;;;4.60;;
71207;SDS011;58938;49.868;8.646;2023-05-23T14:18:54;8.15;;;4.45;;
71207;SDS011;58938;49.868;8.646;2023-05-23T14:21:20;10.73;;;5.45;;
71207;SDS011;58938;49.868;8.646;2023-05-23T14:23:46;10.23;;;5.27;;
71207;SDS011;58938;49.868;8.646;2023-05-23T14:26:12;9.65;;;5.43;;
71207;SDS011;58938;49.868;8.646;2023-05-23T14:28:38;10.13;;;5.47;;
71207;SDS011;58938;49.868;8.646;2023-05-23T14:31:04;10.20;;;5.32;;
71207;SDS011;58938;49.868;8.646;2023-05-23T14:33:30;9.13;;;5.37;;
71207;SDS011;58938;49.868;8.646;2023-05-23T14:35:56;12.95;;;6.15;;
71207;SDS011;58938;49.868;8.646;2023-05-23T14:38:22;11.70;;;5.70;;
71207;SDS011;58938;49.868;8.646;2023-05-23T14:40:48;10.68;;;5.72;;
71207;SDS011;58938;49.868;8.646;2023-05-23T14:43:14;9.97;;;5.00;;
71207;SDS011;58938;49.868;8.646;2023-05-23T14:45:41;9.45;;;5.45;;
71207;SDS011;58938;49.868;8.646;2023-05-23T14:48:08;9.15;;;5.40;;
71207;SDS011;58938;49.868;8.646;2023-05-23T14:50:35;14.07;;;5.80;;
71207;SDS011;58938;49.868;8.646;2023-05-23T14:53:01;8.65;;;5.63;;
71207;SDS011;58938;49.868;8.646;2023-05-23T14:55:27;10.60;;;6.00;;
71207;SDS011;58938;49.868;8.646;2023-05-23T14:57:53;12.07;;;5.88;;